Time;durP1;ratioP1;P1;durP2;ratioP2;P2;SDS_P1;SDS_P2;PMS_P1;PMS_P2;Temp;Humidity;BMP_temperature;BMP_pressure;BME280_temperature;BME280_humidity;BME280_pressure;Samples;Min_cycle;Max_cycle;Signal;HPM_P1;HPM_P2
2024/01/17 00:01:55;;;;;;;93.03;36.07;;;-9.60;99.90;;;;;;5009840;28;20025;-82
2024/01/17 00:04:20;;;;;;;85.33;35.30;;;-9.60;99.90;;;;;;5015391;28;20053;-81
2024/01/17 00:06:46;;;;;;;75.57;31.17;;;-9.70;99.90;;;;;;5012519;28;20097;-81
2024/01/17 00:09:12;;;;;;;71.73;28.40;;;-9.70;99.90;;;;;;5015024;28;20128;-81
2024/01/17 00:11:38;;;;;;;67.50;29.47;;;-9.80;99.90;;;;;;5028063;28;20037;-82
2024/01/17 00:14:03;;;;;;;75.90;31.70;;;-9.80;99.90;;;;;;5023956;28;20021;-82
2024/01/17 00:16:29;;;;;;;101.07;41.57;;;-9.90;99.90;;;;;;5026819;28;20041;-82
2024/01/17 00:18:55;;;;;;;102.00;42.07;;;-9.90;99.90;;;;;;5025610;28;20033;-82
2024/01/17 00:21:21;;;;;;;103.13;41.50;;;-10.00;99.90;;;;;;5027928;28;20048;-82
2024/01/17 00:23:46;;;;;;;105.30;43.43;;;-10.10;99.90;;;;;;5013681;28;20018;-82
2024/01/17 00:26:12;;;;;;;97.33;41.53;;;-10.20;99.90;;;;;;5011733;28;20022;-82
2024/01/17 00:28:38;;;;;;;93.37;36.80;;;-10.20;99.90;;;;;;5011084;28;20049;-82
2024/01/17 00:31:03;;;;;;;86.87;37.50;;;-10.20;99.90;;;;;;5010874;28;20022;-82
2024/01/17 00:33:29;;;;;;;69.00;30.93;;;-10.30;99.90;;;;;;5012019;28;20028;-82
2024/01/17 00:35:55;;;;;;;63.27;28.50;;;-10.30;99.90;;;;;;5012757;28;20464;-82
2024/01/17 00:38:20;;;;;;;81.63;28.37;;;-10.30;99.90;;;;;;5014360;28;20036;-82
2024/01/17 00:40:46;;;;;;;66.53;26.13;;;-10.30;99.90;;;;;;5027278;28;20034;-82
2024/01/17 00:43:11;;;;;;;60.90;26.20;;;-10.40;99.90;;;;;;5025324;28;20018;-82
2024/01/17 00:45:37;;;;;;;77.87;28.53;;;-10.40;99.90;;;;;;5017220;28;20391;-82
2024/01/17 00:48:03;;;;;;;71.70;28.17;;;-10.50;99.90;;;;;;5010337;28;20490;-83
2024/01/17 00:50:29;;;;;;;60.07;26.50;;;-10.50;99.90;;;;;;5022035;27;20105;-82
2024/01/17 00:52:54;;;;;;;56.57;25.37;;;-10.50;99.90;;;;;;5021105;28;20030;-83
2024/01/17 00:55:20;;;;;;;63.37;24.27;;;-10.60;99.90;;;;;;5021611;28;20074;-82
2024/01/17 00:57:46;;;;;;;53.70;24.20;;;-10.60;99.90;;;;;;5021355;28;20028;-82
2024/01/17 01:00:12;;;;;;;60.50;24.90;;;-10.60;99.90;;;;;;5018282;28;20026;-82
2024/01/17 01:02:37;;;;;;;60.47;22.13;;;-10.70;99.90;;;;;;5015982;28;20018;-81
2024/01/17 01:05:03;;;;;;;54.50;21.77;;;-10.70;99.90;;;;;;5018391;28;20048;-83
2024/01/17 01:07:29;;;;;;;54.73;21.70;;;-10.80;99.90;;;;;;5015924;28;20022;-82
2024/01/17 01:09:55;;;;;;;51.50;21.63;;;-10.80;99.90;;;;;;5030547;28;20417;-82
2024/01/17 01:12:21;;;;;;;55.63;19.57;;;-10.90;99.90;;;;;;5020232;28;20083;-82
2024/01/17 01:14:46;;;;;;;48.20;21.20;;;-11.00;99.90;;;;;;5014567;28;20041;-82
2024/01/17 01:17:12;;;;;;;53.30;20.20;;;-11.00;99.90;;;;;;5017546;28;20022;-82
2024/01/17 01:19:38;;;;;;;57.77;22.73;;;-11.10;99.90;;;;;;5019456;28;20379;-82
2024/01/17 01:22:04;;;;;;;53.87;22.83;;;-11.00;99.90;;;;;;5019277;28;20029;-82
2024/01/17 01:24:29;;;;;;;44.07;18.93;;;-11.10;99.90;;;;;;5018778;28;20014;-82
2024/01/17 01:26:55;;;;;;;43.93;20.63;;;-11.10;99.90;;;;;;5019440;28;20483;-82
2024/01/17 01:29:20;;;;;;;50.97;20.17;;;-11.10;99.90;;;;;;5020005;28;20026;-82
2024/01/17 01:31:46;;;;;;;47.80;19.87;;;-11.10;99.90;;;;;;5019974;28;20032;-82
2024/01/17 01:34:12;;;;;;;54.73;23.03;;;-11.20;99.90;;;;;;5018992;28;20018;-82
2024/01/17 01:36:37;;;;;;;45.27;19.17;;;-11.20;99.90;;;;;;5019257;28;20022;-82
2024/01/17 01:39:03;;;;;;;52.73;23.40;;;-11.20;99.90;;;;;;5018765;28;20139;-82
2024/01/17 01:41:29;;;;;;;42.53;19.47;;;-11.30;99.90;;;;;;5020796;28;20052;-82
2024/01/17 01:43:54;;;;;;;51.80;20.87;;;-11.30;99.90;;;;;;5018342;28;20526;-83
2024/01/17 01:46:31;;;;;;;48.87;19.30;;;-11.40;99.90;;;;;;5011941;28;20022;-82
2024/01/17 01:48:58;;;;;;;50.43;20.03;;;-11.30;99.90;;;;;;5017348;28;20502;-82
2024/01/17 01:51:25;;;;;;;56.70;24.27;;;-11.40;99.90;;;;;;5022290;28;20048;-82
2024/01/17 01:53:55;;;;;;;46.83;19.13;;;-11.50;99.90;;;;;;5019842;28;20142;-82
2024/01/17 01:56:24;;;;;;;53.13;21.47;;;-11.60;99.90;;;;;;5022129;28;20030;-83
2024/01/17 01:58:52;;;;;;;50.47;21.80;;;-11.60;99.90;;;;;;5011413;28;20018;-83
2024/01/17 02:01:19;;;;;;;55.63;19.40;;;-11.60;99.90;;;;;;5011591;28;20052;-82
2024/01/17 02:03:46;;;;;;;49.70;20.63;;;-11.60;99.90;;;;;;5012936;28;20032;-82
2024/01/17 02:06:18;;;;;;;53.00;19.50;;;-11.60;99.90;;;;;;5010586;28;20030;-82
2024/01/17 02:08:43;;;;;;;53.57;22.20;;;-11.50;99.90;;;;;;5014256;28;20022;-83
2024/01/17 02:11:10;;;;;;;52.70;20.73;;;-11.60;99.90;;;;;;5019099;28;20025;-84
2024/01/17 02:13:36;;;;;;;42.53;16.63;;;-11.60;99.90;;;;;;5015965;28;20022;-84
2024/01/17 02:16:02;;;;;;;51.63;21.77;;;-11.50;99.90;;;;;;5016898;28;20021;-84
2024/01/17 02:18:28;;;;;;;59.67;25.13;;;-11.70;99.90;;;;;;5016208;28;20014;-83
2024/01/17 02:20:54;;;;;;;64.63;24.43;;;-11.80;99.90;;;;;;5021789;28;20044;-84
2024/01/17 02:23:24;;;;;;;71.93;28.33;;;-11.80;99.90;;;;;;5020194;28;20076;-83
2024/01/17 02:25:51;;;;;;;64.17;25.10;;;-11.80;99.90;;;;;;5011941;28;20416;-83
2024/01/17 02:28:17;;;;;;;63.83;24.57;;;-11.80;99.90;;;;;;5017808;28;20475;-83
2024/01/17 02:30:44;;;;;;;57.57;25.00;;;-11.80;99.90;;;;;;5021234;28;20029;-83
2024/01/17 02:33:09;;;;;;;62.37;25.53;;;-11.90;99.90;;;;;;5014410;28;20018;-82
2024/01/17 02:35:37;;;;;;;52.53;20.83;;;-11.90;99.90;;;;;;5015448;28;20498;-83
2024/01/17 02:38:03;;;;;;;52.63;20.30;;;-11.90;99.90;;;;;;5013857;28;20018;-82
2024/01/17 02:40:28;;;;;;;53.33;23.00;;;-11.90;99.90;;;;;;5019045;28;20044;-82
2024/01/17 02:42:54;;;;;;;55.33;20.90;;;-11.90;99.90;;;;;;5017251;28;20089;-82
2024/01/17 02:45:21;;;;;;;37.00;15.83;;;-11.90;99.90;;;;;;5011407;28;20022;-80
2024/01/17 02:47:46;;;;;;;44.63;19.80;;;-11.90;99.90;;;;;;5018505;28;20429;-81
2024/01/17 02:50:14;;;;;;;35.80;15.50;;;-11.90;99.90;;;;;;5013109;28;20014;-82
2024/01/17 02:52:49;;;;;;;39.80;15.80;;;-12.00;99.90;;;;;;5013223;28;20025;-85
2024/01/17 02:55:16;;;;;;;45.80;18.33;;;-11.90;99.90;;;;;;4998940;28;20109;-84
2024/01/17 02:57:43;;;;;;;40.33;17.37;;;-11.90;99.90;;;;;;5010463;28;20018;-84
2024/01/17 03:00:09;;;;;;;40.43;16.97;;;-11.90;99.90;;;;;;5010627;28;20044;-84
2024/01/17 03:02:35;;;;;;;32.70;15.27;;;-11.80;99.90;;;;;;5012650;28;20478;-84
2024/01/17 03:05:03;;;;;;;56.93;20.70;;;-11.80;99.90;;;;;;5012295;28;20402;-84
2024/01/17 03:07:29;;;;;;;48.97;20.37;;;-11.90;99.90;;;;;;5022346;28;20028;-84
2024/01/17 03:09:55;;;;;;;59.13;21.93;;;-11.90;99.90;;;;;;5024656;28;20026;-83
2024/01/17 03:12:20;;;;;;;53.43;20.37;;;-11.90;99.90;;;;;;5020083;28;20499;-83
2024/01/17 03:14:46;;;;;;;55.07;21.00;;;-12.00;99.90;;;;;;5009663;28;20022;-83
2024/01/17 03:17:14;;;;;;;41.17;15.63;;;-12.00;99.90;;;;;;5014193;28;20014;-84
2024/01/17 03:19:43;;;;;;;39.93;16.93;;;-12.00;99.90;;;;;;5017091;28;20038;-84
2024/01/17 03:22:09;;;;;;;52.37;21.50;;;-12.00;99.90;;;;;;5018937;28;20356;-84
2024/01/17 03:24:37;;;;;;;41.63;19.43;;;-12.00;99.90;;;;;;5011980;28;20059;-84
2024/01/17 03:27:03;;;;;;;55.90;20.10;;;-12.00;99.90;;;;;;5010324;28;20386;-84
2024/01/17 03:29:29;;;;;;;40.73;16.90;;;-12.10;99.90;;;;;;5013088;28;20055;-82
2024/01/17 03:31:54;;;;;;;40.60;17.43;;;-12.00;99.90;;;;;;5021345;28;20105;-82
2024/01/17 03:34:20;;;;;;;28.57;13.37;;;-12.00;99.90;;;;;;5022351;28;20032;-83
2024/01/17 03:36:46;;;;;;;37.00;15.53;;;-11.90;99.90;;;;;;5010246;28;20099;-81
2024/01/17 03:39:12;;;;;;;39.83;17.13;;;-11.80;99.90;;;;;;5019756;28;20022;-82
2024/01/17 03:41:37;;;;;;;39.03;17.17;;;-11.80;99.90;;;;;;5015449;28;20064;-83
2024/01/17 03:44:03;;;;;;;53.87;21.50;;;-11.80;99.90;;;;;;5021301;28;20029;-83
2024/01/17 03:46:29;;;;;;;52.87;21.83;;;-11.80;99.90;;;;;;5024976;28;20100;-83
2024/01/17 03:48:54;;;;;;;79.17;30.63;;;-11.80;99.90;;;;;;5027488;28;20471;-82
2024/01/17 03:51:20;;;;;;;83.60;33.17;;;-11.90;99.90;;;;;;5026879;28;20018;-82
2024/01/17 03:53:46;;;;;;;84.33;33.27;;;-11.90;99.90;;;;;;5014741;28;20096;-82
2024/01/17 03:56:13;;;;;;;88.23;33.63;;;-12.00;99.90;;;;;;5013279;28;20048;-82
2024/01/17 03:58:41;;;;;;;68.10;25.60;;;-12.00;99.90;;;;;;5013876;28;20025;-83
2024/01/17 04:01:16;;;;;;;85.57;31.77;;;-12.00;99.90;;;;;;5028422;28;20033;-83
2024/01/17 04:03:42;;;;;;;100.90;34.80;;;-12.00;99.90;;;;;;4998536;28;20079;-83
2024/01/17 04:06:07;;;;;;;81.40;30.77;;;-12.10;99.90;;;;;;5011319;28;20030;-82
2024/01/17 04:08:33;;;;;;;57.57;23.70;;;-12.00;99.90;;;;;;5009188;28;20101;-82
2024/01/17 04:10:59;;;;;;;71.57;27.70;;;-12.10;99.90;;;;;;5013499;28;20033;-82
2024/01/17 04:13:24;;;;;;;51.17;18.73;;;-12.00;99.90;;;;;;5027194;28;20129;-83
2024/01/17 04:15:50;;;;;;;38.70;15.10;;;-12.00;99.90;;;;;;5022892;28;20022;-84
2024/01/17 04:18:16;;;;;;;35.10;15.70;;;-12.00;99.90;;;;;;5022359;28;20034;-84
2024/01/17 04:20:42;;;;;;;37.13;15.50;;;-11.70;99.90;;;;;;5013600;28;20405;-82
2024/01/17 04:23:08;;;;;;;55.57;21.57;;;-11.80;99.90;;;;;;5020704;28;20089;-85
2024/01/17 04:25:35;;;;;;;77.70;28.83;;;-11.80;99.90;;;;;;5025529;28;20074;-82
2024/01/17 04:28:05;;;;;;;74.70;28.53;;;-11.90;99.90;;;;;;5014078;28;20022;-82
2024/01/17 04:30:31;;;;;;;70.90;31.33;;;-12.00;99.90;;;;;;5013365;28;20026;-82
2024/01/17 04:32:57;;;;;;;33.33;14.20;;;-12.00;99.90;;;;;;5016244;28;20525;-82
2024/01/17 04:35:22;;;;;;;68.23;27.93;;;-11.70;99.90;;;;;;5013778;28;20029;-85
2024/01/17 04:37:48;;;;;;;174.90;56.60;;;-11.60;99.90;;;;;;5024586;28;20021;-82
2024/01/17 04:40:14;;;;;;;84.93;24.13;;;-11.20;99.90;;;;;;5013710;28;20475;-81
2024/01/17 04:42:39;;;;;;;76.60;25.67;;;-11.00;99.90;;;;;;5015381;28;20079;-82
2024/01/17 04:45:07;;;;;;;48.87;17.63;;;-10.70;99.90;;;;;;5017163;28;20057;-85
2024/01/17 04:47:32;;;;;;;63.30;21.80;;;-10.60;99.90;;;;;;5015840;28;20025;-82
2024/01/17 04:49:58;;;;;;;72.70;22.57;;;-10.40;99.90;;;;;;5017256;28;20093;-85
2024/01/17 04:52:24;;;;;;;73.67;23.17;;;-10.30;99.90;;;;;;5014754;28;20022;-86
2024/01/17 04:54:49;;;;;;;86.50;31.67;;;-10.30;99.90;;;;;;5014543;28;20396;-82
2024/01/17 04:57:15;;;;;;;88.77;30.43;;;-10.40;99.90;;;;;;5016288;28;20048;-83
2024/01/17 04:59:42;;;;;;;81.20;27.73;;;-10.60;99.90;;;;;;5015887;28;20041;-86
2024/01/17 05:02:08;;;;;;;72.70;24.80;;;-10.70;99.90;;;;;;5017529;28;20380;-82
2024/01/17 05:04:34;;;;;;;72.90;24.53;;;-10.90;99.90;;;;;;5013727;28;20121;-86
2024/01/17 05:06:59;;;;;;;66.90;22.13;;;-10.80;99.90;;;;;;5025683;28;20033;-85
2024/01/17 05:09:26;;;;;;;42.67;16.87;;;-10.80;99.90;;;;;;5012846;28;20393;-84
2024/01/17 05:11:52;;;;;;;39.30;15.83;;;-10.90;99.90;;;;;;5014513;28;20010;-85
2024/01/17 05:14:18;;;;;;;47.17;18.17;;;-10.80;99.90;;;;;;5013230;28;20384;-84
2024/01/17 05:16:43;;;;;;;40.77;16.00;;;-10.80;99.90;;;;;;5022237;28;20022;-85
2024/01/17 05:19:09;;;;;;;33.87;14.83;;;-10.70;99.90;;;;;;5017326;28;20037;-84
2024/01/17 05:21:35;;;;;;;33.17;14.70;;;-10.60;99.90;;;;;;5015911;28;20487;-86
2024/01/17 05:24:00;;;;;;;43.27;15.97;;;-10.30;99.90;;;;;;5014815;28;20416;-83
2024/01/17 05:26:26;;;;;;;37.60;15.67;;;-10.00;99.90;;;;;;5022895;28;20022;-83
2024/01/17 05:28:52;;;;;;;29.30;12.70;;;-9.70;99.90;;;;;;5014349;28;20022;-83
2024/01/17 05:31:17;;;;;;;34.33;14.90;;;-9.50;99.90;;;;;;5022378;28;20026;-83
2024/01/17 05:33:44;;;;;;;33.73;14.97;;;-9.40;99.90;;;;;;5018701;28;20550;-83
2024/01/17 05:36:10;;;;;;;29.80;17.27;;;-9.30;99.90;;;;;;5023095;28;20062;-83
2024/01/17 05:38:36;;;;;;;43.17;16.33;;;-9.30;99.90;;;;;;5011843;28;20034;-83
2024/01/17 05:41:03;;;;;;;31.43;13.87;;;-9.20;99.90;;;;;;5022662;28;20036;-84
2024/01/17 05:43:28;;;;;;;34.83;16.10;;;-9.20;99.90;;;;;;5016769;28;20026;-83
2024/01/17 05:45:57;;;;;;;26.70;13.77;;;-9.10;99.90;;;;;;5009554;28;20028;-84
2024/01/17 05:48:23;;;;;;;31.50;14.60;;;-9.00;99.90;;;;;;5019036;28;20026;-83
2024/01/17 05:50:49;;;;;;;27.37;13.43;;;-9.00;99.90;;;;;;5027278;28;20470;-82
2024/01/17 05:53:15;;;;;;;26.50;13.67;;;-8.90;99.90;;;;;;5012831;28;20113;-84
2024/01/17 05:55:41;;;;;;;26.77;12.63;;;-8.80;99.90;;;;;;5013987;28;20590;-84
2024/01/17 05:58:09;;;;;;;33.17;13.13;;;-8.70;99.90;;;;;;5013551;28;20096;-85
2024/01/17 06:00:35;;;;;;;27.07;13.00;;;-8.80;99.90;;;;;;5014406;28;20503;-85
2024/01/17 06:03:00;;;;;;;27.97;14.37;;;-8.70;99.90;;;;;;5012235;28;20053;-85
2024/01/17 06:05:26;;;;;;;27.73;14.13;;;-8.70;99.90;;;;;;5010840;28;20564;-85
2024/01/17 06:07:51;;;;;;;27.67;14.77;;;-8.60;99.90;;;;;;5012571;28;20018;-85
2024/01/17 06:10:20;;;;;;;29.73;14.03;;;-8.60;99.90;;;;;;5003271;28;20034;-87
2024/01/17 06:12:46;;;;;;;31.90;15.60;;;-8.50;99.90;;;;;;5015575;28;20105;-84
2024/01/17 06:15:12;;;;;;;34.73;14.87;;;-8.50;99.90;;;;;;5003055;28;21055;-80
2024/01/17 06:17:38;;;;;;;34.37;14.93;;;-8.50;99.90;;;;;;5018856;28;20022;-83
2024/01/17 06:20:05;;;;;;;33.10;15.43;;;-8.50;99.90;;;;;;5008037;28;20372;-85
2024/01/17 06:22:30;;;;;;;38.47;15.77;;;-8.50;99.90;;;;;;5011094;28;20021;-85
2024/01/17 06:24:56;;;;;;;33.57;15.03;;;-8.50;99.90;;;;;;5014474;28;20018;-83
2024/01/17 06:27:22;;;;;;;31.70;14.80;;;-8.40;99.90;;;;;;5019433;28;20135;-84
2024/01/17 06:29:48;;;;;;;26.67;14.97;;;-8.40;99.90;;;;;;5005419;28;20138;-83
2024/01/17 06:32:14;;;;;;;31.17;13.70;;;-8.40;99.90;;;;;;5021413;28;20166;-80
2024/01/17 06:34:41;;;;;;;37.77;16.43;;;-8.40;99.90;;;;;;5010718;28;20099;-80
2024/01/17 06:37:06;;;;;;;35.73;14.70;;;-8.40;99.90;;;;;;5012943;28;20044;-81
2024/01/17 06:39:33;;;;;;;44.10;16.07;;;-8.30;99.90;;;;;;5008783;28;20483;-80
2024/01/17 06:41:59;;;;;;;46.13;18.83;;;-8.30;99.90;;;;;;5003631;28;20046;-81
2024/01/17 06:44:28;;;;;;;46.73;16.80;;;-8.30;99.90;;;;;;5006355;28;20434;-80
2024/01/17 06:46:55;;;;;;;36.97;16.80;;;-8.30;99.90;;;;;;4993795;28;20046;-81
2024/01/17 06:49:21;;;;;;;35.63;15.90;;;-8.20;99.90;;;;;;5011166;28;20030;-81
2024/01/17 06:51:47;;;;;;;28.53;14.27;;;-8.20;99.90;;;;;;5007340;28;20118;-81
2024/01/17 06:54:13;;;;;;;40.10;17.93;;;-8.10;99.90;;;;;;5000395;28;20022;-81
2024/01/17 06:56:39;;;;;;;31.10;15.20;;;-8.00;99.90;;;;;;5001867;28;20022;-81
2024/01/17 06:59:04;;;;;;;32.10;14.07;;;-8.00;99.90;;;;;;5024455;28;20024;-80
2024/01/17 07:01:30;;;;;;;29.90;13.23;;;-7.90;99.90;;;;;;5013031;28;20064;-80
2024/01/17 07:03:56;;;;;;;24.07;13.43;;;-7.90;99.90;;;;;;5006556;28;20030;-81
2024/01/17 07:06:21;;;;;;;25.97;13.60;;;-7.70;99.90;;;;;;5008825;28;20072;-80
2024/01/17 07:08:47;;;;;;;26.27;14.30;;;-7.60;99.90;;;;;;5021223;28;20481;-82
2024/01/17 07:11:14;;;;;;;30.03;13.63;;;-7.50;99.90;;;;;;5019638;28;20055;-81
2024/01/17 07:13:40;;;;;;;28.67;13.80;;;-7.40;99.90;;;;;;5010463;28;20022;-82
2024/01/17 07:16:06;;;;;;;31.13;17.13;;;-7.30;99.90;;;;;;5024137;28;20021;-81
2024/01/17 07:18:33;;;;;;;37.13;19.00;;;-7.10;99.90;;;;;;5049929;28;20022;-81
2024/01/17 07:20:59;;;;;;;39.50;18.83;;;-7.00;99.90;;;;;;5009997;28;20086;-83
2024/01/17 07:23:24;;;;;;;32.93;16.67;;;-6.90;99.90;;;;;;5015815;28;20022;-81
2024/01/17 07:25:50;;;;;;;33.77;15.90;;;-6.90;99.90;;;;;;5020280;28;20025;-84
2024/01/17 07:28:19;;;;;;;36.70;17.33;;;-6.80;99.90;;;;;;5027113;28;20034;-84
2024/01/17 07:30:44;;;;;;;35.90;17.50;;;-6.80;99.90;;;;;;5027089;28;20020;-82
2024/01/17 07:33:10;;;;;;;38.17;16.60;;;-6.80;99.90;;;;;;5028595;28;20033;-81
2024/01/17 07:35:36;;;;;;;39.77;16.87;;;-6.70;99.90;;;;;;5028935;28;20029;-81
2024/01/17 07:38:02;;;;;;;31.77;16.53;;;-6.70;99.90;;;;;;5027621;28;20022;-83
2024/01/17 07:40:28;;;;;;;36.13;18.00;;;-6.60;99.90;;;;;;5008982;28;20072;-82
2024/01/17 07:42:54;;;;;;;37.30;18.30;;;-6.60;99.90;;;;;;5022339;28;20425;-82
2024/01/17 07:45:21;;;;;;;41.53;17.17;;;-6.40;99.90;;;;;;5010723;28;20031;-81
2024/01/17 07:47:47;;;;;;;46.22;19.20;;;-6.40;99.90;;;;;;5010218;28;20566;-82
2024/01/17 07:50:13;;;;;;;34.85;18.42;;;-6.20;99.90;;;;;;5025249;28;20041;-81
2024/01/17 07:52:40;;;;;;;47.70;20.17;;;-6.00;99.90;;;;;;5011753;28;20060;-81
2024/01/17 07:55:06;;;;;;;45.03;19.33;;;-5.90;99.90;;;;;;5011584;28;20014;-81
2024/01/17 07:57:31;;;;;;;37.78;18.08;;;-5.70;99.90;;;;;;5008243;28;20022;-82
2024/01/17 07:59:57;;;;;;;31.90;16.75;;;-5.60;99.90;;;;;;5012386;28;20091;-82
2024/01/17 08:02:23;;;;;;;28.77;14.30;;;-5.40;99.90;;;;;;5011788;28;20026;-82
2024/01/17 08:04:52;;;;;;;25.48;13.73;;;-5.20;99.90;;;;;;5010822;28;20500;-81
2024/01/17 08:07:20;;;;;;;28.65;14.48;;;-5.10;99.90;;;;;;5019227;28;20022;-81
2024/01/17 08:09:46;;;;;;;39.92;16.20;;;-5.00;99.90;;;;;;5015022;28;20026;-82
2024/01/17 08:12:12;;;;;;;35.35;14.73;;;-4.90;99.90;;;;;;5015158;28;20032;-82
2024/01/17 08:14:37;;;;;;;37.40;15.93;;;-4.80;99.90;;;;;;5017587;28;20108;-82
2024/01/17 08:17:03;;;;;;;39.55;17.35;;;-4.70;99.90;;;;;;5017496;28;20026;-82
2024/01/17 08:19:29;;;;;;;35.10;17.13;;;-4.70;99.90;;;;;;5018245;28;20108;-82
2024/01/17 08:21:55;;;;;;;41.85;16.55;;;-4.60;99.90;;;;;;5011878;28;20413;-82
2024/01/17 08:24:20;;;;;;;33.40;14.35;;;-4.50;99.90;;;;;;5026434;28;20032;-82
2024/01/17 08:26:47;;;;;;;30.08;14.07;;;-4.40;99.90;;;;;;5011352;28;20502;-82
2024/01/17 08:29:16;;;;;;;28.35;15.00;;;-4.30;99.90;;;;;;5011697;28;20113;-81
2024/01/17 08:31:42;;;;;;;32.25;16.17;;;-4.30;99.90;;;;;;5013005;28;20017;-81
2024/01/17 08:34:07;;;;;;;39.88;18.42;;;-4.30;99.90;;;;;;5022916;28;20030;-82
2024/01/17 08:36:33;;;;;;;42.22;19.15;;;-4.30;99.90;;;;;;5025164;28;20398;-82
2024/01/17 08:38:59;;;;;;;38.55;18.75;;;-4.40;99.90;;;;;;5022816;28;20025;-81
2024/01/17 08:41:25;;;;;;;45.58;18.00;;;-4.40;99.90;;;;;;5012038;28;20041;-82
2024/01/17 08:43:50;;;;;;;30.77;13.25;;;-4.30;99.90;;;;;;5015186;28;20022;-81
2024/01/17 08:46:16;;;;;;;30.15;13.55;;;-4.20;99.90;;;;;;5011471;28;20049;-81
2024/01/17 08:48:42;;;;;;;30.88;13.25;;;-4.10;99.90;;;;;;5014617;28;20068;-82
2024/01/17 08:51:08;;;;;;;26.98;13.45;;;-3.90;99.90;;;;;;5013378;28;20052;-81
2024/01/17 08:53:34;;;;;;;30.15;15.63;;;-3.90;99.90;;;;;;5027000;28;20169;-81
2024/01/17 08:56:02;;;;;;;26.95;15.00;;;-3.80;99.90;;;;;;5024453;28;20025;-81
2024/01/17 08:58:28;;;;;;;27.20;13.55;;;-3.70;99.90;;;;;;5026635;28;20379;-81
2024/01/17 09:00:53;;;;;;;27.85;14.00;;;-3.60;99.90;;;;;;5013035;28;20090;-81
2024/01/17 09:03:20;;;;;;;28.05;12.93;;;-3.60;99.90;;;;;;5021224;28;20113;-81
2024/01/17 09:05:46;;;;;;;30.52;14.40;;;-3.50;99.90;;;;;;5010244;28;20045;-81
2024/01/17 09:08:12;;;;;;;32.25;15.93;;;-3.40;99.90;;;;;;5012289;28;20543;-82
2024/01/17 09:10:38;;;;;;;32.50;16.02;;;-3.30;99.90;;;;;;5030170;28;20478;-82
2024/01/17 09:13:04;;;;;;;33.45;16.95;;;-3.20;99.90;;;;;;5021243;28;20042;-81
2024/01/17 09:15:29;;;;;;;29.40;14.88;;;-3.10;99.90;;;;;;5018421;28;20060;-81
2024/01/17 09:17:55;;;;;;;27.83;14.20;;;-2.90;99.90;;;;;;5022084;28;20109;-81
2024/01/17 09:20:21;;;;;;;34.88;15.77;;;-2.90;98.40;;;;;;5016948;28;20041;-82
2024/01/17 09:22:46;;;;;;;38.83;14.52;;;-2.80;95.70;;;;;;5011041;28;20048;-81
2024/01/17 09:25:12;;;;;;;28.90;13.88;;;-2.60;95.30;;;;;;5008156;28;20032;-81
2024/01/17 09:27:38;;;;;;;32.90;13.73;;;-2.60;94.00;;;;;;5012637;28;20094;-81
2024/01/17 09:30:04;;;;;;;32.15;15.45;;;-2.50;93.00;;;;;;5012857;28;20017;-80
2024/01/17 09:32:30;;;;;;;29.88;13.20;;;-2.50;92.40;;;;;;5009904;28;20126;-82
2024/01/17 09:34:56;;;;;;;27.17;13.40;;;-2.50;92.20;;;;;;5010491;28;20638;-81
2024/01/17 09:37:21;;;;;;;35.25;14.82;;;-2.50;91.40;;;;;;5009558;28;20028;-81
2024/01/17 09:39:50;;;;;;;25.77;11.73;;;-2.40;91.40;;;;;;5010982;28;20041;-82
2024/01/17 09:42:16;;;;;;;25.73;14.07;;;-2.40;91.80;;;;;;5013134;28;20049;-82
2024/01/17 09:44:43;;;;;;;23.10;12.23;;;-2.50;91.50;;;;;;5011081;28;20165;-82
2024/01/17 09:47:13;;;;;;;27.27;12.88;;;-2.50;92.20;;;;;;5010284;28;20022;-82
2024/01/17 09:49:39;;;;;;;32.33;11.90;;;-2.30;93.00;;;;;;5017789;28;20022;-81
2024/01/17 09:52:06;;;;;;;25.25;11.90;;;-2.30;92.20;;;;;;5013000;28;20510;-81
2024/01/17 09:54:36;;;;;;;25.25;12.38;;;-2.20;91.60;;;;;;5007850;28;20021;-81
2024/01/17 09:57:08;;;;;;;28.75;12.95;;;-2.20;91.10;;;;;;5012524;28;20360;-81
2024/01/17 09:59:45;;;;;;;24.40;11.55;;;-2.10;90.50;;;;;;5012066;28;20034;-81
2024/01/17 10:02:12;;;;;;;21.33;12.65;;;-2.00;89.00;;;;;;5013387;28;20045;-81
2024/01/17 10:04:41;;;;;;;19.15;9.75;;;-1.90;88.70;;;;;;5019492;28;20053;-82
2024/01/17 10:07:07;;;;;;;19.48;10.07;;;-1.90;88.40;;;;;;5007243;28;20022;-81
2024/01/17 10:09:33;;;;;;;18.13;10.13;;;-1.90;88.20;;;;;;5011264;28;20026;-82
2024/01/17 10:11:59;;;;;;;22.65;10.30;;;-1.80;87.10;;;;;;5011750;28;20018;-82
2024/01/17 10:14:25;;;;;;;17.25;8.75;;;-1.80;87.40;;;;;;5014664;28;20463;-82
2024/01/17 10:16:51;;;;;;;20.00;9.15;;;-1.70;86.60;;;;;;5025045;28;20025;-82
2024/01/17 10:19:17;;;;;;;19.48;8.77;;;-1.60;85.80;;;;;;5016418;28;20038;-81
2024/01/17 10:21:43;;;;;;;16.23;8.57;;;-1.60;85.30;;;;;;5027095;28;20034;-83
2024/01/17 10:24:10;;;;;;;15.68;8.20;;;-1.60;85.40;;;;;;5021000;28;20074;-80
2024/01/17 10:26:40;;;;;;;15.23;8.52;;;-1.60;85.60;;;;;;5021515;28;20022;-81
2024/01/17 10:29:07;;;;;;;15.20;8.18;;;-1.50;85.50;;;;;;5018080;28;20022;-82
2024/01/17 10:31:33;;;;;;;13.93;7.68;;;-1.40;85.00;;;;;;5022150;28;20029;-82
2024/01/17 10:33:59;;;;;;;16.65;7.63;;;-1.40;85.10;;;;;;5013386;28;20026;-81
2024/01/17 10:36:25;;;;;;;16.20;7.55;;;-1.40;84.80;;;;;;5012473;28;20041;-81
2024/01/17 10:38:51;;;;;;;19.73;9.32;;;-1.40;84.80;;;;;;5014901;28;20486;-80
2024/01/17 10:41:16;;;;;;;34.13;15.65;;;-1.40;85.00;;;;;;5009818;28;20403;-81
2024/01/17 10:43:56;;;;;;;24.35;14.23;;;-1.40;84.90;;;;;;5012172;28;20025;-82
2024/01/17 10:46:22;;;;;;;188.93;84.57;;;-1.40;85.40;;;;;;5011276;28;20041;-79
2024/01/17 10:48:48;;;;;;;68.10;34.63;;;-1.30;85.50;;;;;;5009853;28;20069;-82
2024/01/17 10:51:20;;;;;;;44.58;22.77;;;-1.30;85.60;;;;;;5019167;28;20508;-81
2024/01/17 10:53:54;;;;;;;66.90;37.20;;;-1.20;85.80;;;;;;5009217;28;20046;-81
2024/01/17 10:56:20;;;;;;;47.20;28.90;;;-1.20;85.60;;;;;;5010270;28;20372;-81
2024/01/17 10:58:50;;;;;;;63.25;31.92;;;-1.20;85.80;;;;;;5015086;28;20014;-81
2024/01/17 11:01:33;;;;;;;51.65;28.80;;;-1.20;86.70;;;;;;5012108;28;20121;-81
2024/01/17 11:04:11;;;;;;;108.20;56.92;;;-1.30;85.70;;;;;;5010966;28;20046;-82
2024/01/17 11:06:38;;;;;;;108.22;51.13;;;-1.30;85.80;;;;;;5004920;28;20475;-81
2024/01/17 11:09:06;;;;;;;259.95;98.68;;;-1.30;85.80;;;;;;5010569;28;20046;-82
2024/01/17 11:11:33;;;;;;;331.10;131.52;;;-1.30;85.80;;;;;;5008662;28;20520;-81
2024/01/17 11:14:00;;;;;;;427.08;166.93;;;-1.30;85.80;;;;;;5008784;28;20471;-82
2024/01/17 11:16:27;;;;;;;515.65;216.30;;;-1.20;86.20;;;;;;5010214;28;20018;-81
2024/01/17 11:18:55;;;;;;;412.20;149.85;;;-1.20;85.50;;;;;;5010357;28;20026;-81
2024/01/17 11:21:23;;;;;;;481.38;180.88;;;-1.20;85.00;;;;;;5026025;28;20041;-82
2024/01/17 11:24:10;;;;;;;293.50;102.72;;;-1.20;84.30;;;;;;5027554;28;20025;-81
2024/01/17 11:26:47;;;;;;;531.25;198.90;;;-1.20;83.70;;;;;;5010017;28;20029;-81
2024/01/17 11:29:30;;;;;;;381.05;123.10;;;-1.30;83.70;;;;;;5022460;28;20021;-83
2024/01/17 11:32:37;;;;;;;463.92;160.68;;;-1.30;83.70;;;;;;5023868;28;20092;-81
2024/01/17 11:35:03;;;;;;;180.38;58.47;;;-1.40;84.00;;;;;;5004526;28;20026;-81
2024/01/17 11:37:30;;;;;;;262.50;75.45;;;-1.40;84.30;;;;;;5013302;28;20041;-81
2024/01/17 11:39:56;;;;;;;253.02;94.65;;;-1.40;84.60;;;;;;5013541;28;20395;-81
2024/01/17 11:42:23;;;;;;;149.75;51.22;;;-1.50;85.00;;;;;;5019920;28;20510;-81
2024/01/17 11:44:53;;;;;;;193.90;65.78;;;-1.50;84.90;;;;;;5026081;28;20444;-80
2024/01/17 11:47:22;;;;;;;211.30;72.03;;;-1.50;84.80;;;;;;5022660;28;20014;-81
2024/01/17 11:49:49;;;;;;;172.25;55.28;;;-1.60;85.00;;;;;;5023582;28;20558;-80
2024/01/17 11:52:31;;;;;;;77.55;24.13;;;-1.60;85.50;;;;;;5019454;28;20116;-81
2024/01/17 11:54:57;;;;;;;62.70;20.42;;;-1.60;85.80;;;;;;5023809;28;20029;-82
2024/01/17 11:57:26;;;;;;;57.05;21.42;;;-1.60;86.20;;;;;;5020893;28;20074;-81
2024/01/17 12:00:11;;;;;;;53.10;21.35;;;-1.60;85.80;;;;;;5021272;28;20545;-81
2024/01/17 12:02:42;;;;;;;113.22;45.47;;;-1.60;85.40;;;;;;5006245;28;20049;-81
2024/01/17 12:05:09;;;;;;;214.52;83.60;;;-1.60;85.30;;;;;;5015127;28;20038;-82
2024/01/17 12:07:49;;;;;;;129.88;50.72;;;-1.60;85.90;;;;;;5029533;28;20032;-82
2024/01/17 12:10:15;;;;;;;78.22;31.58;;;-1.50;86.30;;;;;;5028595;28;20029;-80
2024/01/17 12:12:44;;;;;;;46.08;23.35;;;-1.50;86.60;;;;;;5029367;28;20026;-80
2024/01/17 12:15:11;;;;;;;40.40;17.83;;;-1.50;86.40;;;;;;5012338;28;20026;-81
2024/01/17 12:17:42;;;;;;;35.45;16.70;;;-1.50;86.00;;;;;;5021705;28;20115;-82
2024/01/17 12:20:08;;;;;;;27.02;15.85;;;-1.60;85.70;;;;;;5029222;28;20048;-82
2024/01/17 12:22:35;;;;;;;37.78;17.40;;;-1.60;86.60;;;;;;5028702;28;20490;-81